createdAt,value
2022-12-15T00:00:12.073Z,13.40
2022-12-15T00:02:58.218Z,13.10
2022-12-15T00:05:49.671Z,14.47
2022-12-15T00:08:36.800Z,14.20
2022-12-15T00:11:23.199Z,12.80
2022-12-15T00:14:09.579Z,13.47
2022-12-15T00:16:55.641Z,13.03
2022-12-15T00:19:41.712Z,13.07
2022-12-15T00:22:29.157Z,12.17
2022-12-15T00:25:15.418Z,11.33
2022-12-15T00:28:01.385Z,12.03
2022-12-15T00:30:49.884Z,13.00
2022-12-15T00:33:36.403Z,12.33
2022-12-15T00:36:22.593Z,13.53
2022-12-15T00:38:52.511Z,12.53
2022-12-15T00:41:21.115Z,12.73
2022-12-15T00:43:49.894Z,12.43
2022-12-15T00:46:35.915Z,12.83
2022-12-15T00:49:24.617Z,13.30
2022-12-15T00:52:10.545Z,12.03
2022-12-15T00:54:57.884Z,11.90
2022-12-15T00:57:43.997Z,12.03
2022-12-15T01:00:31.260Z,12.23
2022-12-15T01:03:17.221Z,12.73
2022-12-15T01:06:03.376Z,12.23
2022-12-15T01:08:49.265Z,11.63
2022-12-15T01:11:36.580Z,12.00
2022-12-15T01:14:22.424Z,11.93
2022-12-15T01:17:08.268Z,12.13
2022-12-15T01:19:54.320Z,12.97
2022-12-15T01:22:23.060Z,12.80
2022-12-15T01:24:51.564Z,12.63
2022-12-15T01:27:21.630Z,12.17
2022-12-15T01:29:50.194Z,13.43
2022-12-15T01:32:18.712Z,12.43
2022-12-15T01:34:47.209Z,13.17
2022-12-15T01:37:15.810Z,12.83
2022-12-15T01:40:01.711Z,11.97
2022-12-15T01:42:31.864Z,11.83
2022-12-15T01:45:37.472Z,11.50
2022-12-15T01:48:08.536Z,12.97
2022-12-15T01:50:41.805Z,12.80
2022-12-15T01:53:11.906Z,11.97
2022-12-15T01:55:43.472Z,13.17
2022-12-15T01:58:20.724Z,12.30
2022-12-15T02:00:49.540Z,12.93
2022-12-15T02:03:18.737Z,12.27
2022-12-15T02:05:48.050Z,13.23
2022-12-15T02:08:17.025Z,13.00
2022-12-15T02:11:03.847Z,11.80
2022-12-15T02:13:40.427Z,11.93
2022-12-15T02:16:18.770Z,12.07
2022-12-15T02:18:55.296Z,11.87
2022-12-15T02:21:30.201Z,11.50
2022-12-15T02:24:34.692Z,11.87
2022-12-15T02:27:35.280Z,11.83
2022-12-15T02:30:36.623Z,11.17
2022-12-15T02:33:11.387Z,11.50
2022-12-15T02:35:50.997Z,11.23
2022-12-15T02:38:29.941Z,12.27
2022-12-15T02:41:00.425Z,12.90
2022-12-15T02:43:31.215Z,12.63
2022-12-15T02:46:14.394Z,11.77
2022-12-15T02:48:56.256Z,12.60
2022-12-15T02:51:37.687Z,12.23
2022-12-15T02:54:24.327Z,12.40
2022-12-15T02:57:03.915Z,11.43
2022-12-15T02:59:41.602Z,12.50
2022-12-15T03:02:14.918Z,12.37
2022-12-15T03:04:45.469Z,11.70
2022-12-15T03:07:15.355Z,12.57
2022-12-15T03:09:43.930Z,12.47
2022-12-15T03:12:12.585Z,12.30
2022-12-15T03:14:41.218Z,12.13
2022-12-15T03:17:11.207Z,12.97
2022-12-15T03:19:39.794Z,11.73
2022-12-15T03:22:08.460Z,12.00
2022-12-15T03:24:37.171Z,11.90
2022-12-15T03:27:06.302Z,12.47
2022-12-15T03:29:34.824Z,11.53
2022-12-15T03:32:03.663Z,11.97
2022-12-15T03:34:33.873Z,12.63
2022-12-15T03:37:02.376Z,12.23
2022-12-15T03:39:30.867Z,12.23
2022-12-15T03:41:59.453Z,13.00
2022-12-15T03:44:28.041Z,11.93
2022-12-15T03:47:02.707Z,12.40
2022-12-15T03:49:33.327Z,12.87
2022-12-15T03:52:02.063Z,12.43
2022-12-15T03:54:30.592Z,12.37
2022-12-15T03:56:59.864Z,12.60
2022-12-15T03:59:28.481Z,12.33
2022-12-15T04:01:57.234Z,11.43
2022-12-15T04:04:25.823Z,12.10
2022-12-15T04:06:55.712Z,12.20
2022-12-15T04:09:24.412Z,11.80
2022-12-15T04:11:52.879Z,12.60
2022-12-15T04:14:21.410Z,11.23
2022-12-15T04:16:49.961Z,11.80
2022-12-15T04:19:36.061Z,11.63
2022-12-15T04:22:05.995Z,11.43
2022-12-15T04:24:52.339Z,12.73
2022-12-15T04:27:38.453Z,12.67
2022-12-15T04:30:25.419Z,12.17
2022-12-15T04:33:12.732Z,11.30
2022-12-15T04:35:58.808Z,12.17
2022-12-15T04:38:50.388Z,12.40
2022-12-15T04:41:37.739Z,10.93
2022-12-15T04:44:24.592Z,11.70
2022-12-15T04:47:10.585Z,12.37
2022-12-15T04:49:56.394Z,11.93
2022-12-15T04:52:42.677Z,13.30
2022-12-15T04:55:29.764Z,11.40
2022-12-15T04:58:16.056Z,12.03
2022-12-15T05:01:02.192Z,12.27
2022-12-15T05:03:48.280Z,11.47
2022-12-15T05:06:34.593Z,12.53
2022-12-15T05:09:20.503Z,11.87
2022-12-15T05:12:07.991Z,11.10
2022-12-15T05:14:54.015Z,11.60
2022-12-15T05:17:41.911Z,11.07
2022-12-15T05:20:28.493Z,11.77
2022-12-15T05:23:15.216Z,12.20
2022-12-15T05:26:01.556Z,11.10
2022-12-15T05:28:49.091Z,11.07
2022-12-15T05:31:35.140Z,11.63
2022-12-15T05:34:05.682Z,11.37
2022-12-15T05:36:34.562Z,10.73
2022-12-15T05:39:03.120Z,12.27
2022-12-15T05:41:31.725Z,12.70
2022-12-15T05:44:01.685Z,11.13
2022-12-15T05:46:30.341Z,11.70
2022-12-15T05:48:58.933Z,12.23
2022-12-15T05:51:27.598Z,11.93
2022-12-15T05:53:56.104Z,12.10
2022-12-15T05:56:26.318Z,12.40
2022-12-15T05:58:55.035Z,11.17
2022-12-15T06:01:26.693Z,10.53
2022-12-15T06:03:55.323Z,12.37
2022-12-15T06:06:24.041Z,11.83
2022-12-15T06:08:52.720Z,12.57
2022-12-15T06:11:22.208Z,12.57
2022-12-15T06:13:51.238Z,11.67
2022-12-15T06:16:21.195Z,12.07
2022-12-15T06:18:54.064Z,10.67
2022-12-15T06:21:24.936Z,11.87
2022-12-15T06:23:53.725Z,11.20
2022-12-15T06:26:23.924Z,12.10
2022-12-15T06:28:53.554Z,12.63
2022-12-15T06:31:23.525Z,12.73
2022-12-15T06:34:01.074Z,12.23
2022-12-15T06:36:31.590Z,12.33
2022-12-15T06:39:01.019Z,12.90
2022-12-15T06:41:30.937Z,12.93
2022-12-15T06:44:00.290Z,13.07
2022-12-15T06:46:30.437Z,13.07
2022-12-15T06:49:00.614Z,12.57
2022-12-15T06:51:29.488Z,11.43
2022-12-15T06:53:58.035Z,12.83
2022-12-15T06:56:34.112Z,12.10
2022-12-15T06:59:03.788Z,11.50
2022-12-15T07:01:33.214Z,11.87
2022-12-15T07:04:05.601Z,12.50
2022-12-15T07:06:37.480Z,12.30
2022-12-15T07:09:08.481Z,11.53
2022-12-15T07:11:37.427Z,12.43
2022-12-15T07:14:06.073Z,12.83
2022-12-15T07:16:34.978Z,12.97
2022-12-15T07:19:05.201Z,13.90
2022-12-15T07:21:33.724Z,12.77
2022-12-15T07:24:02.843Z,13.53
2022-12-15T07:26:31.788Z,12.50
2022-12-15T07:29:00.349Z,14.27
2022-12-15T07:31:28.994Z,14.43
2022-12-15T07:33:58.882Z,14.93
2022-12-15T07:36:28.746Z,14.27
2022-12-15T07:39:01.868Z,13.40
2022-12-15T07:41:30.980Z,13.00
2022-12-15T07:43:59.793Z,13.53
2022-12-15T07:46:29.116Z,14.40
2022-12-15T07:48:57.810Z,14.57
2022-12-15T07:51:28.102Z,14.00
2022-12-15T07:53:56.939Z,15.47
2022-12-15T07:56:25.622Z,14.77
2022-12-15T07:58:54.143Z,15.37
2022-12-15T08:01:22.839Z,15.93
2022-12-15T08:03:51.622Z,15.63
2022-12-15T08:06:20.219Z,15.43
2022-12-15T08:08:51.361Z,16.33
2022-12-15T08:11:24.539Z,15.27
2022-12-15T08:14:02.470Z,17.37
2022-12-15T08:16:34.513Z,17.03
2022-12-15T08:19:05.312Z,16.53
2022-12-15T08:21:34.360Z,18.77
2022-12-15T08:24:04.391Z,18.40
2022-12-15T08:26:33.030Z,17.57
2022-12-15T08:29:40.481Z,17.83
2022-12-15T08:31:54.062Z,17.13
2022-12-15T08:34:22.862Z,17.43
2022-12-15T08:36:51.455Z,17.97
2022-12-15T08:39:21.521Z,20.03
2022-12-15T08:41:51.286Z,19.10
2022-12-15T08:44:20.190Z,19.07
2022-12-15T08:46:48.761Z,18.87
2022-12-15T08:49:21.655Z,19.93
2022-12-15T08:51:51.463Z,19.63
2022-12-15T08:54:22.057Z,21.53
2022-12-15T08:56:50.665Z,21.80
2022-12-15T08:59:19.879Z,22.20
2022-12-15T09:01:48.829Z,24.10
2022-12-15T09:04:17.929Z,22.70
2022-12-15T09:06:46.812Z,20.63
2022-12-15T09:09:21.378Z,21.13
2022-12-15T09:11:50.735Z,21.73
2022-12-15T09:14:25.687Z,22.67
2022-12-15T09:16:57.708Z,21.77
2022-12-15T09:19:26.566Z,23.07
2022-12-15T09:21:55.635Z,22.10
2022-12-15T09:24:34.416Z,24.23
2022-12-15T09:27:04.952Z,22.67
2022-12-15T09:29:36.541Z,22.80
2022-12-15T09:32:10.646Z,21.53
2022-12-15T09:34:42.899Z,22.97
2022-12-15T09:37:11.575Z,23.57
2022-12-15T09:39:41.551Z,24.03
2022-12-15T09:42:25.561Z,22.40
2022-12-15T09:45:03.123Z,23.07
2022-12-15T09:47:41.123Z,22.97
2022-12-15T09:50:13.497Z,23.87
2022-12-15T09:52:48.503Z,25.27
2022-12-15T09:55:23.078Z,22.87
2022-12-15T09:57:54.952Z,23.77
2022-12-15T10:00:26.001Z,24.47
2022-12-15T10:03:24.536Z,24.33
2022-12-15T10:06:17.006Z,24.57
2022-12-15T10:08:50.841Z,23.60
2022-12-15T10:11:28.563Z,24.87
2022-12-15T10:14:03.599Z,24.30
2022-12-15T10:16:36.157Z,25.13
2022-12-15T10:19:13.450Z,23.43
2022-12-15T10:21:42.506Z,25.17
2022-12-15T10:24:37.260Z,26.07
2022-12-15T10:27:23.745Z,25.10
2022-12-15T10:30:02.201Z,24.47
2022-12-15T10:32:42.766Z,24.90
2022-12-15T10:35:17.846Z,25.03
2022-12-15T10:37:46.929Z,24.03
2022-12-15T10:40:21.589Z,24.07
2022-12-15T10:42:52.215Z,25.93
2022-12-15T10:45:35.594Z,26.37
2022-12-15T10:48:06.778Z,24.73
2022-12-15T10:50:36.904Z,25.37
2022-12-15T10:53:10.450Z,25.37
2022-12-15T10:55:41.144Z,25.50
2022-12-15T10:58:19.360Z,25.67
2022-12-15T11:00:50.861Z,25.17
2022-12-15T11:03:25.103Z,25.63
2022-12-15T11:05:54.986Z,26.53
2022-12-15T11:08:25.583Z,25.03
2022-12-15T11:11:14.316Z,25.53
2022-12-15T11:14:07.172Z,25.60
2022-12-15T11:16:43.020Z,25.10
2022-12-15T11:19:17.247Z,25.77
2022-12-15T11:21:49.684Z,26.43
2022-12-15T11:24:29.681Z,25.20
2022-12-15T11:27:05.660Z,25.00
2022-12-15T11:29:47.630Z,23.67
2022-12-15T11:32:22.027Z,23.43
2022-12-15T11:34:50.856Z,23.17
2022-12-15T11:37:38.881Z,25.50
2022-12-15T11:40:36.951Z,23.40
2022-12-15T11:43:40.159Z,21.33
2022-12-15T11:46:21.168Z,22.77
2022-12-15T11:49:19.495Z,21.77
2022-12-15T11:51:53.738Z,21.47
2022-12-15T11:54:29.771Z,21.57
2022-12-15T11:57:04.079Z,22.40
2022-12-15T12:00:00.323Z,21.17
2022-12-15T12:02:59.329Z,21.87
2022-12-15T12:05:42.925Z,21.30
2022-12-15T12:08:23.973Z,21.17
2022-12-15T12:11:00.559Z,22.07
2022-12-15T12:13:36.312Z,22.77
2022-12-15T12:16:24.713Z,22.70
2022-12-15T12:19:00.399Z,21.43
2022-12-15T12:21:32.906Z,20.87
2022-12-15T12:24:04.590Z,20.20
2022-12-15T12:26:39.972Z,22.80
2022-12-15T12:29:16.742Z,21.67
2022-12-15T12:32:04.094Z,23.27
2022-12-15T12:34:47.464Z,21.03
2022-12-15T12:37:25.292Z,22.87
2022-12-15T12:39:57.929Z,22.50
2022-12-15T12:42:35.697Z,21.87
2022-12-15T12:45:04.747Z,22.17
2022-12-15T12:47:36.630Z,22.43
2022-12-15T12:50:16.073Z,23.87
2022-12-15T12:52:50.900Z,22.13
2022-12-15T12:55:27.431Z,22.43
2022-12-15T12:57:56.662Z,23.50
2022-12-15T13:00:27.928Z,24.13
2022-12-15T13:03:17.135Z,24.40
2022-12-15T13:05:52.140Z,24.73
2022-12-15T13:08:42.740Z,22.80
2022-12-15T13:11:51.655Z,22.60
2022-12-15T13:14:26.344Z,22.80
2022-12-15T13:17:24.807Z,23.20
2022-12-15T13:20:22.557Z,21.83
2022-12-15T13:22:53.165Z,21.27
2022-12-15T13:25:40.899Z,21.70
2022-12-15T13:28:25.592Z,21.20
2022-12-15T13:31:32.322Z,22.13
2022-12-15T13:34:23.301Z,22.30
2022-12-15T13:37:02.135Z,22.17
2022-12-15T13:39:57.638Z,22.23
2022-12-15T13:45:35.813Z,21.73
2022-12-15T13:48:15.242Z,22.30
2022-12-15T13:50:51.174Z,22.10
2022-12-15T13:53:25.256Z,21.80
2022-12-15T13:56:05.189Z,22.43
2022-12-15T13:58:41.825Z,23.30
2022-12-15T14:01:27.217Z,22.83
2022-12-15T14:04:00.755Z,22.40
2022-12-15T14:06:36.253Z,23.13
2022-12-15T14:09:06.092Z,24.40
2022-12-15T14:11:52.342Z,22.93
2022-12-15T14:14:25.668Z,21.63
2022-12-15T14:16:57.683Z,23.27
2022-12-15T14:19:30.903Z,22.87
2022-12-15T14:22:02.041Z,23.70
2022-12-15T14:24:40.914Z,24.17
2022-12-15T14:27:22.287Z,22.90
2022-12-15T14:29:52.339Z,22.40
2022-12-15T14:32:23.901Z,21.30
2022-12-15T14:34:53.497Z,22.53
2022-12-15T14:37:22.524Z,22.73
2022-12-15T14:39:51.291Z,22.30
2022-12-15T14:42:26.528Z,21.00
2022-12-15T14:44:57.948Z,21.70
2022-12-15T14:47:29.442Z,22.97
2022-12-15T14:50:01.119Z,22.50
2022-12-15T14:52:33.807Z,20.73
2022-12-15T14:55:04.057Z,21.80
2022-12-15T14:57:43.355Z,23.53
2022-12-15T15:00:26.616Z,23.83
2022-12-15T15:03:15.442Z,21.80
2022-12-15T15:03:20.189Z,25.30
2022-12-15T15:05:52.861Z,23.00
2022-12-15T15:08:29.156Z,24.50
2022-12-15T15:11:01.401Z,24.93
2022-12-15T15:13:40.366Z,23.20
2022-12-15T15:16:16.083Z,24.27
2022-12-15T15:18:45.384Z,23.77
2022-12-15T15:21:21.284Z,24.73
2022-12-15T15:24:00.523Z,24.27
2022-12-15T15:26:30.960Z,24.87
2022-12-15T15:29:01.012Z,24.67
2022-12-15T15:31:40.955Z,24.13
2022-12-15T15:34:11.383Z,23.40
2022-12-15T15:36:40.914Z,24.40
2022-12-15T15:39:15.988Z,22.80
2022-12-15T15:41:44.748Z,24.57
2022-12-15T15:44:16.349Z,23.17
2022-12-15T15:46:48.928Z,23.57
2022-12-15T15:49:21.365Z,23.67
2022-12-15T15:51:50.571Z,25.73
2022-12-15T15:54:23.460Z,23.47
2022-12-15T15:56:52.195Z,25.63
2022-12-15T15:59:22.642Z,23.47
2022-12-15T16:01:55.777Z,23.53
2022-12-15T16:04:25.001Z,22.77
2022-12-15T16:06:54.490Z,22.03
2022-12-15T16:09:25.450Z,24.50
2022-12-15T16:11:54.385Z,22.37
2022-12-15T16:14:24.342Z,24.50
2022-12-15T16:16:54.018Z,23.87
2022-12-15T16:19:23.918Z,23.57
2022-12-15T16:21:53.192Z,23.63
2022-12-15T16:24:21.880Z,22.60
2022-12-15T16:26:51.533Z,24.50
2022-12-15T16:29:21.834Z,24.07
2022-12-15T16:31:51.805Z,23.80
2022-12-15T16:34:21.792Z,23.53
2022-12-15T16:36:50.558Z,23.63
2022-12-15T16:39:26.412Z,24.60
2022-12-15T16:41:56.848Z,24.77
2022-12-15T16:44:25.969Z,23.83
2022-12-15T16:46:56.917Z,23.93
2022-12-15T16:49:27.569Z,23.90
2022-12-15T16:51:56.136Z,23.73
2022-12-15T16:54:27.274Z,22.97
2022-12-15T16:56:57.997Z,26.60
2022-12-15T16:59:35.903Z,25.07
2022-12-15T17:02:24.956Z,26.40
2022-12-15T17:04:55.169Z,23.37
2022-12-15T17:07:26.180Z,23.70
2022-12-15T17:09:54.974Z,24.37
2022-12-15T17:12:23.591Z,23.63
2022-12-15T17:14:52.212Z,23.20
2022-12-15T17:17:22.173Z,22.20
2022-12-15T17:20:28.106Z,25.03
2022-12-15T17:22:40.521Z,23.10
2022-12-15T17:25:17.291Z,23.63
2022-12-15T17:27:46.807Z,25.03
2022-12-15T17:30:16.600Z,24.53
2022-12-15T17:32:48.234Z,24.70
2022-12-15T17:35:17.703Z,25.50
2022-12-15T17:37:46.688Z,23.60
2022-12-15T17:40:18.324Z,21.83
2022-12-15T17:42:47.326Z,22.37
2022-12-15T17:45:22.089Z,21.67
2022-12-15T17:47:53.011Z,20.93
2022-12-15T17:50:21.627Z,22.83
2022-12-15T17:52:50.347Z,23.07
2022-12-15T17:55:22.972Z,26.07
2022-12-15T17:57:53.625Z,24.03
2022-12-15T18:00:25.604Z,27.30
2022-12-15T18:02:56.960Z,26.70
2022-12-15T18:05:28.315Z,26.63
2022-12-15T18:07:59.000Z,26.47
2022-12-15T18:10:32.296Z,25.87
2022-12-15T18:13:01.194Z,23.37
2022-12-15T18:15:32.454Z,25.10
2022-12-15T18:18:02.385Z,23.53
2022-12-15T18:20:30.996Z,24.47
2022-12-15T18:23:00.104Z,23.43
2022-12-15T18:25:30.165Z,24.40
2022-12-15T18:27:59.415Z,23.57
2022-12-15T18:30:29.563Z,23.60
2022-12-15T18:32:59.914Z,23.43
2022-12-15T18:35:36.623Z,25.07
2022-12-15T18:38:14.584Z,25.50
2022-12-15T18:40:43.985Z,23.83
2022-12-15T18:43:16.198Z,22.83
2022-12-15T18:45:45.617Z,25.63
2022-12-15T18:48:17.950Z,25.40
2022-12-15T18:50:48.767Z,25.57
2022-12-15T18:53:19.690Z,25.87
2022-12-15T18:55:48.784Z,26.77
2022-12-15T18:58:24.479Z,24.83
2022-12-15T19:00:53.286Z,25.20
2022-12-15T19:03:22.618Z,25.07
2022-12-15T19:06:00.544Z,25.07
2022-12-15T19:08:31.978Z,24.30
2022-12-15T19:11:05.365Z,25.60
2022-12-15T19:13:36.082Z,25.97
2022-12-15T19:16:07.544Z,26.27
2022-12-15T19:18:53.560Z,27.37
2022-12-15T19:21:42.814Z,25.20
2022-12-15T19:24:14.258Z,25.33
2022-12-15T19:26:42.873Z,26.30
2022-12-15T19:29:17.789Z,25.13
2022-12-15T19:31:46.483Z,24.57
2022-12-15T19:34:15.878Z,23.90
2022-12-15T19:36:46.827Z,23.60
2022-12-15T19:39:22.221Z,26.83
2022-12-15T19:41:51.423Z,24.50
2022-12-15T19:44:20.067Z,24.83
2022-12-15T19:46:48.769Z,23.60
2022-12-15T19:49:17.282Z,25.47
2022-12-15T19:51:47.359Z,25.20
2022-12-15T19:54:18.876Z,25.37
2022-12-15T19:56:47.684Z,24.47
2022-12-15T19:59:20.784Z,25.47
2022-12-15T20:01:51.756Z,23.70
2022-12-15T20:04:24.089Z,24.53
2022-12-15T20:06:54.427Z,22.93
2022-12-15T20:09:22.929Z,23.67
2022-12-15T20:11:51.447Z,24.40
2022-12-15T20:14:20.019Z,23.20
2022-12-15T20:16:50.533Z,25.03
2022-12-15T20:19:19.173Z,23.40
2022-12-15T20:21:47.778Z,23.37
2022-12-15T20:24:20.415Z,24.90
2022-12-15T20:26:49.764Z,24.77
2022-12-15T20:29:24.618Z,24.80
2022-12-15T20:31:54.266Z,24.10
2022-12-15T20:34:23.055Z,22.50
2022-12-15T20:36:52.401Z,22.53
2022-12-15T20:39:26.447Z,22.93
2022-12-15T20:41:55.078Z,22.33
2022-12-15T20:44:24.367Z,23.57
2022-12-15T20:46:53.396Z,23.03
2022-12-15T20:49:24.022Z,24.17
2022-12-15T20:51:53.642Z,25.97
2022-12-15T20:54:25.058Z,23.50
2022-12-15T20:56:54.244Z,23.83
2022-12-15T20:59:23.109Z,24.37
2022-12-15T21:01:52.678Z,26.30
2022-12-15T21:04:26.865Z,24.03
2022-12-15T21:06:57.166Z,23.30
2022-12-15T21:09:27.579Z,21.37
2022-12-15T21:11:58.563Z,20.57
2022-12-15T21:14:27.426Z,22.10
2022-12-15T21:16:58.111Z,23.27
2022-12-15T21:19:27.420Z,22.73
2022-12-15T21:21:57.240Z,23.77
2022-12-15T21:24:29.730Z,24.50
2022-12-15T21:26:58.732Z,22.77
2022-12-15T21:29:29.821Z,22.67
2022-12-15T21:31:58.826Z,23.17
2022-12-15T21:34:27.636Z,22.47
2022-12-15T21:36:57.443Z,22.77
2022-12-15T21:39:33.533Z,23.57
2022-12-15T21:42:06.863Z,21.50
2022-12-15T21:44:36.702Z,24.43
2022-12-15T21:47:11.964Z,24.50
2022-12-15T21:49:39.575Z,26.67
2022-12-15T21:52:10.422Z,22.90
2022-12-15T21:54:40.336Z,22.73
2022-12-15T21:57:12.216Z,22.77
2022-12-15T21:59:41.017Z,20.63
2022-12-15T22:02:25.681Z,22.50
2022-12-15T22:04:54.937Z,22.53
2022-12-15T22:07:23.836Z,23.27
2022-12-15T22:09:53.678Z,21.53
2022-12-15T22:12:24.147Z,21.30
2022-12-15T22:14:52.794Z,21.77
2022-12-15T22:17:23.103Z,21.30
2022-12-15T22:19:51.702Z,19.63
2022-12-15T22:22:20.492Z,20.53
2022-12-15T22:24:49.367Z,21.53
2022-12-15T22:27:21.083Z,22.33
2022-12-15T22:29:50.534Z,21.43
2022-12-15T22:32:19.336Z,20.93
2022-12-15T22:34:47.916Z,21.70
2022-12-15T22:37:16.789Z,20.67
2022-12-15T22:39:45.311Z,21.43
2022-12-15T22:42:17.619Z,23.37
2022-12-15T22:44:47.595Z,23.33
2022-12-15T22:47:16.227Z,22.03
2022-12-15T22:49:45.055Z,21.90
2022-12-15T22:52:17.490Z,24.23
2022-12-15T22:54:46.304Z,23.27
2022-12-15T22:57:21.600Z,22.80
2022-12-15T23:00:00.321Z,23.03
2022-12-15T23:02:30.380Z,21.43
2022-12-15T23:04:58.967Z,21.07
2022-12-15T23:07:27.790Z,22.77
2022-12-15T23:10:10.291Z,21.77
2022-12-15T23:12:38.876Z,22.73
2022-12-15T23:15:36.198Z,22.27
2022-12-15T23:18:04.951Z,19.97
2022-12-15T23:20:33.514Z,19.57
2022-12-15T23:23:02.734Z,20.00
2022-12-15T23:25:31.534Z,18.70
2022-12-15T23:28:00.358Z,18.97
2022-12-15T23:30:30.264Z,18.90
2022-12-15T23:32:58.804Z,18.50
2022-12-15T23:35:27.370Z,16.60
2022-12-15T23:37:56.071Z,17.50
2022-12-15T23:40:24.665Z,17.80
2022-12-15T23:42:53.738Z,17.47
2022-12-15T23:45:22.657Z,16.53
2022-12-15T23:47:52.593Z,17.80
2022-12-15T23:50:22.760Z,18.17
2022-12-15T23:52:51.463Z,18.53
2022-12-15T23:55:20.589Z,16.63
2022-12-15T23:57:49.603Z,18.50
